Time;durP1;ratioP1;P1;durP2;ratioP2;P2;SDS_P1;SDS_P2;PMS_P1;PMS_P2;Temp;Humidity;BMP_temperature;BMP_pressure;BME280_temperature;BME280_humidity;BME280_pressure;Samples;Min_cycle;Max_cycle;Signal;HPM_P1;HPM_P2
2022/12/12 03:53:44;;;;;;;10.32;5.38;;;4.00;59.20;;;2.42;63.88;100532.41;12203556;19;20378;-83
2022/12/12 03:58:00;;;;;;;10.85;6.53;;;4.00;59.20;;;2.40;63.85;100528.19;12163188;19;20018;-84
2022/12/12 04:02:22;;;;;;;10.52;5.65;;;4.00;59.30;;;2.38;63.82;100522.25;12164239;19;20022;-81
2022/12/12 04:06:41;;;;;;;11.13;6.60;;;4.00;59.30;;;2.45;63.90;100531.50;12163313;19;20092;-83
2022/12/12 07:29:48;;;;;;;2.60;2.28;;;4.60;59.50;;;3.05;64.09;100608.19;12178649;19;20019;-81
2022/12/12 07:33:53;;;;;;;2.88;2.63;;;4.60;59.50;;;2.59;64.17;100534.59;12172828;19;20026;-83
2022/12/12 07:37:55;;;;;;;2.80;2.53;;;4.60;59.50;;;3.02;63.95;100602.25;12165721;19;20046;-82
2022/12/12 07:41:57;;;;;;;2.70;2.50;;;4.50;59.50;;;2.96;64.10;100582.63;12171395;19;20022;-81
2022/12/12 07:45:59;;;;;;;4.85;3.25;;;4.70;59.50;;;2.91;64.16;100587.03;12164800;19;20018;-81
2022/12/12 07:50:01;;;;;;;2.72;2.53;;;4.60;59.50;;;2.98;63.97;100600.66;12162555;19;20391;-81
2022/12/12 07:54:04;;;;;;;3.90;3.00;;;4.60;59.50;;;3.01;64.25;100603.97;12172299;19;20030;-81
2022/12/12 07:58:06;;;;;;;2.80;2.60;;;4.50;59.50;;;3.05;64.17;100615.94;12167254;19;20030;-82
2022/12/12 08:02:10;;;;;;;2.63;2.42;;;4.60;59.50;;;2.93;64.11;100603.34;12171024;19;20134;-83
2022/12/12 08:06:16;;;;;;;2.80;2.57;;;4.60;59.50;;;3.08;64.26;100625.31;12173876;19;20046;-84
2022/12/12 08:10:18;;;;;;;2.42;2.22;;;4.60;59.50;;;3.05;64.22;100628.81;12166991;19;20766;-82
2022/12/12 08:14:20;;;;;;;3.03;2.65;;;4.60;59.50;;;3.03;64.20;100632.34;12163850;19;20026;-82
2022/12/12 08:18:21;;;;;;;3.22;2.92;;;4.60;59.50;;;3.13;64.15;100646.66;12158340;19;20029;-81
2022/12/12 08:22:23;;;;;;;3.45;2.67;;;4.90;60.00;;;3.09;64.11;100648.47;12158657;19;20484;-82
2022/12/12 08:26:27;;;;;;;2.65;2.45;;;4.60;59.40;;;3.13;64.00;100656.13;12165990;19;20019;-83
2022/12/12 08:30:29;;;;;;;3.30;2.90;;;4.60;59.40;;;3.13;64.10;100651.81;12177381;19;20625;-83
2022/12/12 08:34:31;;;;;;;3.38;2.80;;;4.60;59.40;;;3.08;64.18;100640.81;12165404;19;20014;-82
2022/12/12 08:38:32;;;;;;;2.60;2.40;;;4.60;59.40;;;3.19;64.10;100654.25;12153068;19;20025;-81
2022/12/12 08:42:36;;;;;;;2.47;2.28;;;4.60;59.40;;;3.12;64.19;100644.97;12171057;19;20018;-81
2022/12/12 08:46:38;;;;;;;2.70;2.33;;;4.70;59.40;;;3.22;64.35;100663.66;12167355;19;20014;-81
2022/12/12 08:50:41;;;;;;;3.30;2.90;;;4.60;59.40;;;3.04;64.14;100637.44;12157007;19;20038;-82
2022/12/12 08:54:43;;;;;;;2.45;2.25;;;4.70;59.40;;;3.21;64.15;100677.44;12142932;19;20018;-82
2022/12/12 08:58:46;;;;;;;2.85;2.65;;;4.70;59.30;;;3.19;64.23;100674.91;12167489;19;20886;-81
2022/12/12 09:02:49;;;;;;;2.65;2.40;;;4.70;59.30;;;3.19;64.04;100680.06;12167297;19;20368;-83
2022/12/12 09:06:51;;;;;;;3.17;2.60;;;4.70;59.30;;;3.21;64.16;100674.84;12167454;19;20029;-81
2022/12/12 09:10:52;;;;;;;2.67;2.20;;;4.70;59.20;;;2.92;64.19;100637.75;12166631;19;20015;-84
2022/12/12 09:14:54;;;;;;;3.33;2.53;;;4.70;59.10;;;2.81;64.21;100617.41;12174994;19;20050;-84
2022/12/12 09:18:58;;;;;;;2.78;2.58;;;4.70;59.10;;;3.23;64.11;100686.00;12181124;19;20010;-82
2022/12/12 09:23:01;;;;;;;2.45;2.25;;;4.70;59.20;;;3.15;64.22;100680.16;12180711;19;21040;-83
2022/12/12 09:27:03;;;;;;;2.72;2.53;;;4.70;59.10;;;3.25;64.09;100697.13;12174067;19;20037;-81
2022/12/12 09:31:07;;;;;;;4.22;2.60;;;4.70;59.10;;;3.25;64.01;100702.28;12159585;19;20336;-81
2022/12/12 09:35:08;;;;;;;3.03;2.55;;;4.70;59.10;;;3.24;64.24;100698.00;12149898;19;20323;-81
2022/12/12 09:39:10;;;;;;;2.92;2.63;;;4.70;59.10;;;3.22;64.05;100692.88;12157573;19;20345;-81
2022/12/12 09:43:28;;;;;;;3.45;3.10;;;4.70;59.10;;;3.19;64.10;100692.13;12162916;19;20010;-82
2022/12/12 09:47:43;;;;;;;3.03;2.63;;;4.70;59.00;;;3.24;64.23;100711.75;12173708;19;20022;-81
2022/12/12 09:51:49;;;;;;;4.75;3.17;;;4.70;59.00;;;3.18;64.13;100698.16;12180745;19;20366;-81
2022/12/12 09:56:13;;;;;;;3.25;2.78;;;4.70;58.90;;;3.24;64.14;100709.19;12177428;19;20015;-82
2022/12/12 10:00:17;;;;;;;2.88;2.50;;;4.80;58.80;;;3.18;64.05;100690.41;12173101;19;20010;-81
2022/12/12 10:04:30;;;;;;;3.33;3.03;;;5.00;58.90;;;3.24;64.05;100705.72;12173471;19;20805;-82
2022/12/12 10:09:19;;;;;;;3.60;2.72;;;4.70;58.60;;;3.22;64.11;100702.38;12175474;19;20018;-82
2022/12/12 10:13:26;;;;;;;2.95;2.30;;;4.70;58.60;;;3.14;64.18;100693.97;12172074;19;20018;-81
2022/12/12 10:17:42;;;;;;;3.35;3.05;;;4.70;58.70;;;3.19;64.06;100699.88;12165255;19;20415;-82
2022/12/12 10:21:48;;;;;;;3.05;2.70;;;4.70;58.30;;;3.15;64.14;100705.97;12163412;19;20448;-82
2022/12/12 10:26:02;;;;;;;3.47;2.70;;;4.70;58.50;;;3.18;63.96;100703.31;12174494;19;20012;-81
2022/12/12 10:30:19;;;;;;;3.75;2.78;;;4.80;58.40;;;3.15;63.83;100713.72;12170528;19;20774;-82
2022/12/12 10:34:48;;;;;;;3.95;3.55;;;4.70;58.30;;;3.10;63.95;100711.25;12176696;19;20090;-82
2022/12/12 10:39:17;;;;;;;4.22;2.88;;;4.60;58.00;;;3.09;64.02;100705.25;12175301;19;20268;-81
2022/12/12 10:43:28;;;;;;;4.03;3.10;;;4.60;58.00;;;2.98;64.12;100689.19;12181054;19;20354;-82
2022/12/12 10:47:30;;;;;;;2.75;2.40;;;4.60;58.10;;;3.06;64.06;100702.75;12177766;19;20018;-82
2022/12/12 10:51:31;;;;;;;2.92;2.53;;;4.60;58.10;;;3.06;63.93;100691.56;12174065;19;20434;-83
2022/12/12 10:56:16;;;;;;;3.63;2.72;;;4.60;58.20;;;3.12;63.65;100703.47;12179309;19;20368;-82
2022/12/12 11:00:37;;;;;;;3.08;2.50;;;4.60;57.90;;;3.06;63.86;100699.31;12171900;19;20025;-81
2022/12/12 11:04:44;;;;;;;3.30;3.00;;;4.60;58.20;;;3.08;63.77;100713.88;12170990;19;20455;-82
2022/12/12 11:09:05;;;;;;;3.30;3.00;;;4.60;57.80;;;3.04;63.88;100701.09;12178769;19;20042;-81
2022/12/12 11:13:08;;;;;;;2.50;2.30;;;4.60;57.70;;;3.11;63.95;100707.78;12179797;19;20394;-81
2022/12/12 11:17:30;;;;;;;2.80;2.60;;;4.60;58.10;;;3.05;64.00;100697.59;12171380;19;20538;-81
2022/12/12 11:21:35;;;;;;;2.47;2.28;;;4.60;57.80;;;2.97;63.83;100684.03;12169700;19;20038;-80
2022/12/12 11:25:37;;;;;;;2.40;2.17;;;4.60;57.70;;;3.00;63.88;100700.31;12175492;19;20375;-81
2022/12/12 11:30:07;;;;;;;2.40;2.20;;;4.60;57.50;;;3.06;63.86;100702.75;12172537;19;20280;-81
2022/12/12 11:34:13;;;;;;;2.40;2.20;;;4.60;57.60;;;3.06;63.87;100700.16;12179071;19;20414;-81
2022/12/12 11:38:25;;;;;;;2.92;2.40;;;4.60;57.60;;;3.02;63.90;100693.38;12177148;19;20018;-80
2022/12/12 11:42:30;;;;;;;2.33;2.13;;;4.60;57.50;;;3.09;63.69;100694.06;12170576;19;20018;-80
2022/12/12 11:46:32;;;;;;;2.45;2.00;;;4.60;57.40;;;3.17;63.82;100704.22;12175146;19;20031;-80
2022/12/12 11:50:45;;;;;;;2.20;2.00;;;4.60;57.40;;;3.13;63.65;100705.16;12174547;19;20399;-81
2022/12/12 11:54:47;;;;;;;2.90;2.22;;;4.60;56.90;;;3.12;63.68;100704.31;12163711;19;20025;-80
2022/12/12 11:58:56;;;;;;;2.30;1.98;;;4.60;56.90;;;3.09;63.68;100705.25;12162602;19;21002;-80
2022/12/12 12:03:25;;;;;;;2.20;2.00;;;4.70;57.00;;;3.08;63.66;100713.88;12171193;19;20035;-80
2022/12/12 12:08:11;;;;;;;2.22;2.03;;;4.60;56.80;;;3.09;63.66;100712.97;12169871;19;20288;-81
2022/12/12 12:12:45;;;;;;;2.95;2.50;;;4.60;56.90;;;3.10;63.81;100721.56;12166548;19;20573;-81
2022/12/12 12:16:53;;;;;;;2.92;2.72;;;4.60;56.30;;;3.09;63.62;100723.28;12171239;19;20511;-81
2022/12/12 12:21:48;;;;;;;3.20;2.90;;;4.70;56.80;;;3.06;63.43;100723.38;12170280;19;20621;-80
2022/12/12 12:26:02;;;;;;;2.90;2.63;;;4.60;56.60;;;3.04;63.55;100730.28;12163477;19;20729;-81
2022/12/12 12:30:23;;;;;;;3.67;2.80;;;4.50;56.70;;;3.01;63.45;100730.38;12169475;19;20336;-81
2022/12/12 12:34:59;;;;;;;3.45;2.45;;;4.50;56.80;;;2.97;63.67;100728.78;12165611;19;20397;-81
2022/12/12 12:39:28;;;;;;;3.08;2.60;;;4.50;56.70;;;2.95;63.41;100725.38;12180209;19;20899;-81
2022/12/12 12:44:11;;;;;;;2.47;2.33;;;4.50;56.80;;;2.93;63.43;100729.72;12184419;19;20023;-81
2022/12/12 12:48:31;;;;;;;3.00;2.63;;;4.60;57.00;;;2.85;63.26;100719.56;12180644;19;20776;-82
2022/12/12 12:53:20;;;;;;;3.65;3.35;;;4.40;56.80;;;2.85;63.45;100729.88;12161721;19;20122;-82
2022/12/12 12:57:36;;;;;;;3.70;3.08;;;4.60;56.80;;;2.72;63.35;100715.56;12151166;19;20022;-82
2022/12/12 13:01:43;;;;;;;4.72;3.88;;;4.30;56.90;;;2.69;63.38;100718.22;12155080;19;20030;-82
2022/12/12 13:05:56;;;;;;;3.65;3.30;;;4.30;56.50;;;2.71;63.13;100723.38;12159027;19;20897;-82
2022/12/12 13:10:29;;;;;;;4.00;3.60;;;4.30;56.60;;;2.64;63.33;100725.22;12158435;19;20055;-81
2022/12/12 13:14:51;;;;;;;3.55;3.05;;;4.20;56.60;;;2.48;63.41;100711.81;12156667;19;20141;-82
2022/12/12 13:19:11;;;;;;;3.63;3.22;;;4.10;55.80;;;2.53;63.30;100725.47;12157346;19;20882;-82
2022/12/12 13:23:35;;;;;;;3.63;2.63;;;4.10;56.20;;;2.56;63.39;100751.16;12152467;19;20022;-82
2022/12/12 13:27:46;;;;;;;3.08;2.72;;;4.00;56.40;;;2.49;63.27;100726.41;12157957;19;20848;-81
2022/12/12 13:32:13;;;;;;;2.65;2.45;;;4.00;56.50;;;2.53;63.18;100748.66;12153572;19;20029;-82
2022/12/12 13:36:27;;;;;;;2.80;2.58;;;4.00;56.50;;;2.44;63.21;100744.56;12153463;19;20026;-82
2022/12/12 13:40:40;;;;;;;3.25;2.78;;;4.00;56.10;;;2.36;63.22;100727.56;12152829;19;20025;-81
2022/12/12 13:44:49;;;;;;;3.05;2.70;;;4.10;56.00;;;2.45;63.08;100745.38;12154968;19;20798;-82
2022/12/12 13:49:09;;;;;;;2.60;2.40;;;4.00;56.20;;;2.44;63.38;100756.59;12152969;19;20022;-82
2022/12/12 13:53:18;;;;;;;3.28;2.50;;;3.90;56.40;;;2.33;63.09;100735.38;12158875;19;20026;-82
2022/12/12 13:57:28;;;;;;;3.45;2.63;;;3.90;56.30;;;2.34;63.34;100747.34;12156950;19;20770;-82
2022/12/12 14:01:39;;;;;;;3.72;2.80;;;3.90;56.40;;;2.46;63.02;100757.41;12153875;19;20920;-82
2022/12/12 14:06:05;;;;;;;3.08;2.60;;;3.90;56.30;;;2.39;63.11;100748.94;12157999;19;20729;-82
2022/12/12 14:10:55;;;;;;;4.35;2.78;;;3.90;56.20;;;2.38;63.06;100743.84;12151501;19;20268;-82
2022/12/12 14:15:17;;;;;;;3.60;2.72;;;3.90;56.40;;;2.40;63.04;100758.41;12152965;19;20256;-81
2022/12/12 14:19:36;;;;;;;3.30;2.88;;;3.90;56.30;;;2.33;62.88;100756.81;12151860;19;20018;-83
2022/12/12 14:23:44;;;;;;;2.38;2.17;;;3.90;56.30;;;2.38;63.28;100762.72;12160194;19;20019;-82
2022/12/12 14:27:49;;;;;;;3.00;2.70;;;4.00;56.50;;;2.40;63.12;100760.09;12173505;19;20019;-82
2022/12/12 14:32:12;;;;;;;2.20;2.00;;;3.90;55.90;;;2.39;63.04;100758.41;12169050;19;20045;-82
2022/12/12 14:36:49;;;;;;;3.38;2.40;;;3.90;56.30;;;2.40;63.16;100762.69;12179520;19;20319;-81
2022/12/12 14:40:58;;;;;;;2.40;2.20;;;3.90;56.10;;;2.32;62.97;100760.28;12161334;19;20015;-81
2022/12/12 14:44:59;;;;;;;2.47;2.28;;;3.80;56.30;;;2.42;63.05;100768.66;12177737;19;20295;-81
2022/12/12 14:49:04;;;;;;;2.20;2.00;;;3.90;56.50;;;2.31;62.97;100748.25;12164524;19;20014;-81
2022/12/12 14:53:27;;;;;;;4.07;3.10;;;3.90;56.50;;;2.32;62.91;100754.25;12173382;19;20019;-81
2022/12/12 14:57:29;;;;;;;3.25;2.47;;;3.90;56.10;;;2.35;62.94;100762.78;12167627;19;20022;-81
2022/12/12 15:01:40;;;;;;;4.18;3.28;;;3.90;56.20;;;2.25;62.75;100768.16;12167862;19;20411;-81
2022/12/12 15:05:42;;;;;;;3.17;2.72;;;3.80;55.40;;;2.24;62.95;100777.59;12173648;19;20022;-82
2022/12/12 15:09:48;;;;;;;2.85;2.45;;;3.80;55.80;;;2.19;62.97;100782.88;12174597;19;20566;-80
2022/12/12 15:13:59;;;;;;;2.90;2.63;;;4.00;55.80;;;2.27;63.06;100793.03;12167870;19;20304;-80
2022/12/12 15:18:01;;;;;;;3.72;3.05;;;3.80;55.70;;;2.19;62.80;100795.75;12166902;19;20022;-81
2022/12/12 15:22:21;;;;;;;5.10;4.00;;;3.70;55.70;;;2.22;62.61;100803.41;12173376;19;20853;-81
2022/12/12 15:26:29;;;;;;;3.30;2.65;;;3.80;54.90;;;2.13;62.96;100795.88;12176689;19;20019;-80
2022/12/12 15:30:40;;;;;;;4.80;4.13;;;3.70;55.40;;;2.10;62.83;100795.91;12170738;19;20015;-82
2022/12/12 15:34:57;;;;;;;4.78;4.28;;;3.70;55.60;;;2.05;62.97;100779.69;12172771;19;20022;-81
2022/12/12 15:39:15;;;;;;;4.50;4.10;;;3.70;55.40;;;2.13;62.72;100802.72;12167171;19;20034;-81
2022/12/12 15:43:20;;;;;;;4.15;3.75;;;3.70;55.70;;;1.97;62.70;100782.44;12167399;19;20031;-81
2022/12/12 15:47:22;;;;;;;4.72;4.13;;;3.60;55.80;;;2.09;62.88;100794.22;12171796;19;20789;-81
2022/12/12 15:51:30;;;;;;;4.15;3.45;;;3.70;56.10;;;2.15;62.70;100803.56;12159010;19;20703;-81
2022/12/12 15:55:34;;;;;;;4.65;4.05;;;3.60;56.10;;;2.20;62.86;100796.59;12166366;19;20629;-81
2022/12/12 15:59:35;;;;;;;5.63;4.70;;;3.70;56.30;;;2.23;62.63;100811.97;12170670;19;20014;-81
2022/12/12 16:03:55;;;;;;;5.93;5.05;;;3.70;56.20;;;2.14;62.62;100802.72;12163011;19;20026;-81
2022/12/12 16:08:34;;;;;;;7.93;4.93;;;3.80;56.40;;;2.01;62.71;100783.22;12164744;19;20025;-81
2022/12/12 16:13:23;;;;;;;5.68;4.70;;;3.70;56.40;;;2.18;62.87;100819.78;12170557;19;20006;-81
2022/12/12 16:17:27;;;;;;;5.15;3.92;;;3.70;56.20;;;2.13;62.69;100803.59;12180984;19;20378;-81
2022/12/12 16:21:30;;;;;;;5.85;4.20;;;3.70;56.90;;;2.08;62.71;100796.81;12188103;19;20062;-81
2022/12/12 16:25:32;;;;;;;6.20;4.93;;;3.70;57.00;;;2.12;62.85;100804.47;12187362;19;20038;-81
2022/12/12 16:29:34;;;;;;;5.15;3.67;;;3.70;56.70;;;2.12;62.86;100813.91;12183292;19;20022;-81
2022/12/12 16:33:40;;;;;;;4.57;3.50;;;3.70;56.70;;;2.15;62.85;100834.47;12184067;19;20389;-81
2022/12/12 16:37:42;;;;;;;6.55;4.07;;;3.70;56.60;;;2.16;62.76;100831.88;12171952;19;20447;-81
2022/12/12 16:41:43;;;;;;;4.78;4.20;;;3.70;56.70;;;2.19;62.71;100831.81;12171005;19;20015;-81
2022/12/12 16:45:49;;;;;;;5.55;4.05;;;3.70;56.70;;;2.08;62.63;100832.88;12174493;19;20025;-82
2022/12/12 16:49:51;;;;;;;5.97;4.03;;;3.70;56.60;;;2.05;62.58;100827.78;12172851;19;20835;-81
2022/12/12 16:53:54;;;;;;;5.95;4.28;;;3.70;56.90;;;2.17;62.62;100848.16;12170481;19;20050;-82
2022/12/12 16:57:55;;;;;;;5.97;4.57;;;3.80;56.60;;;2.14;62.79;100838.78;12168015;19;20018;-81
2022/12/12 17:01:57;;;;;;;4.88;3.70;;;3.60;56.50;;;2.08;62.64;100823.44;12168461;19;20022;-81
2022/12/12 17:06:00;;;;;;;5.65;3.95;;;3.70;56.60;;;2.11;62.72;100825.94;12170541;19;20476;-82
2022/12/12 17:10:02;;;;;;;4.20;3.78;;;3.60;56.60;;;2.13;62.67;100834.50;12168707;19;20516;-82
2022/12/12 17:14:05;;;;;;;4.43;3.65;;;3.70;56.70;;;2.11;62.77;100835.41;12168941;19;20025;-82
2022/12/12 17:18:07;;;;;;;7.25;4.53;;;3.90;56.80;;;2.14;62.68;100843.94;12167498;19;20800;-82
2022/12/12 17:22:08;;;;;;;7.20;4.57;;;3.60;56.70;;;2.06;62.56;100825.19;12166826;19;20015;-82
2022/12/12 17:26:10;;;;;;;6.53;4.47;;;3.70;56.60;;;2.11;62.64;100841.41;12166563;19;20871;-82
2022/12/12 17:30:13;;;;;;;4.65;3.80;;;3.80;56.80;;;1.96;62.76;100831.38;12165273;19;20269;-82
2022/12/12 17:34:15;;;;;;;6.13;4.43;;;3.60;56.70;;;2.05;62.69;100853.53;12163193;19;20371;-82
2022/12/12 17:38:16;;;;;;;7.05;4.15;;;3.60;56.60;;;2.06;62.63;100861.25;12165755;19;20042;-81
2022/12/12 17:42:18;;;;;;;5.50;4.35;;;3.80;56.80;;;2.05;62.73;100864.69;12166241;19;20015;-82
2022/12/12 17:46:20;;;;;;;8.48;4.57;;;3.50;56.60;;;2.02;62.86;100858.75;12166036;19;20022;-82
2022/12/12 17:50:21;;;;;;;6.00;4.03;;;3.80;56.80;;;1.99;62.81;100870.78;12163268;19;20773;-81
2022/12/12 17:54:23;;;;;;;4.20;3.63;;;3.50;56.70;;;1.88;62.94;100835.81;12168427;19;20368;-82
2022/12/12 17:58:24;;;;;;;5.22;3.83;;;3.50;56.70;;;1.97;62.93;100845.94;12164687;19;20068;-82
2022/12/12 18:02:26;;;;;;;5.68;4.00;;;3.50;56.70;;;1.93;62.72;100828.84;12165578;19;20113;-82
2022/12/12 18:06:34;;;;;;;5.78;4.38;;;3.70;56.70;;;1.98;62.78;100850.22;12168089;19;20283;-81
2022/12/12 18:10:36;;;;;;;5.75;4.10;;;3.50;56.50;;;2.00;62.61;100848.47;12169817;19;20040;-82
2022/12/12 18:14:38;;;;;;;4.47;3.55;;;3.50;56.80;;;1.90;62.78;100837.50;12175903;19;20030;-81
2022/12/12 18:18:40;;;;;;;3.83;3.42;;;3.50;56.60;;;1.86;62.81;100835.81;12175596;19;20458;-81
2022/12/12 18:22:41;;;;;;;5.53;3.78;;;3.50;56.60;;;1.96;62.59;100851.97;12176351;19;20019;-82
2022/12/12 18:26:43;;;;;;;4.88;3.70;;;3.50;56.60;;;1.95;62.62;100852.88;12174500;19;20022;-81
2022/12/12 18:30:49;;;;;;;3.97;3.33;;;3.50;56.50;;;1.96;62.81;100864.84;12171788;19;20275;-82
2022/12/12 18:34:50;;;;;;;4.18;3.45;;;3.50;56.50;;;1.86;62.61;100832.41;12170521;19;21023;-82
2022/12/12 18:38:55;;;;;;;4.88;4.38;;;3.50;56.40;;;1.98;62.76;100852.81;12168400;19;20014;-82
2022/12/12 18:42:57;;;;;;;8.47;6.13;;;3.70;56.40;;;1.97;62.62;100861.38;12182972;19;20021;-83
2022/12/12 18:46:59;;;;;;;8.98;6.50;;;3.50;56.70;;;1.90;62.69;100844.38;12186014;19;20287;-83
2022/12/12 18:51:06;;;;;;;10.10;7.10;;;3.50;56.10;;;1.95;62.48;100863.16;12182729;19;20013;-83
2022/12/12 18:55:08;;;;;;;6.20;4.80;;;3.50;56.10;;;1.95;62.41;100863.16;12184931;19;20018;-83
2022/12/12 18:59:10;;;;;;;6.32;3.70;;;3.50;56.20;;;1.90;62.69;100870.13;12187003;19;20327;-83
2022/12/12 19:03:11;;;;;;;4.70;3.47;;;3.40;56.10;;;1.93;62.55;100872.63;12188603;19;20010;-83
2022/12/12 19:07:13;;;;;;;5.03;3.60;;;3.40;56.10;;;1.86;62.60;100863.31;12185489;19;20042;-82
2022/12/12 19:11:15;;;;;;;4.03;3.53;;;3.40;56.00;;;1.72;62.52;100851.50;12178566;19;20500;-82
2022/12/12 19:15:17;;;;;;;4.68;3.35;;;3.40;56.00;;;1.83;62.74;100874.50;12188535;19;20037;-82
2022/12/12 19:19:19;;;;;;;4.05;2.80;;;3.40;55.90;;;1.83;62.59;100892.53;12175623;19;20011;-82
2022/12/12 19:23:21;;;;;;;4.47;2.63;;;3.30;55.80;;;1.79;62.67;100882.31;12187161;19;20010;-83
2022/12/12 19:27:22;;;;;;;3.03;2.13;;;3.30;55.90;;;1.62;62.60;100844.84;12202269;19;20055;-82
2022/12/12 19:31:24;;;;;;;2.92;2.40;;;3.30;55.80;;;1.69;62.50;100867.00;12200727;19;20512;-82
2022/12/12 19:35:26;;;;;;;3.08;2.70;;;3.30;55.80;;;1.69;62.54;100874.72;12191010;19;20330;-82
2022/12/12 19:39:28;;;;;;;3.53;2.70;;;3.30;55.80;;;1.71;62.48;100880.72;12182945;19;20010;-82
2022/12/12 19:43:30;;;;;;;3.97;2.75;;;3.30;55.80;;;1.67;62.48;100885.94;12188228;19;20319;-82
2022/12/12 19:47:32;;;;;;;2.45;2.00;;;3.50;55.80;;;1.62;62.47;100869.72;12190124;19;20402;-82
2022/12/12 19:51:38;;;;;;;2.20;2.00;;;3.50;55.90;;;1.58;62.57;100871.50;12185300;19;20055;-82
2022/12/12 19:55:46;;;;;;;2.88;2.28;;;3.20;55.80;;;1.56;62.50;100875.81;12183474;19;20023;-82
2022/12/12 19:59:48;;;;;;;2.55;2.05;;;3.20;55.70;;;1.66;62.28;100897.97;12178706;19;20633;-82
2022/12/12 20:03:59;;;;;;;2.35;2.15;;;3.20;55.80;;;1.65;62.26;100898.00;12185985;19;20015;-83
2022/12/12 20:08:01;;;;;;;2.63;2.42;;;3.40;55.80;;;1.56;62.23;100886.09;12185672;19;20022;-82
2022/12/12 20:12:04;;;;;;;2.88;2.20;;;3.10;55.60;;;1.60;62.37;100913.50;12178041;19;20498;-82
2022/12/12 20:16:10;;;;;;;3.08;2.58;;;3.10;55.60;;;1.55;62.40;100911.00;12173275;19;20014;-82
2022/12/12 20:20:12;;;;;;;2.50;2.30;;;3.10;55.60;;;1.54;62.33;100914.44;12179654;19;20006;-82
2022/12/12 20:24:18;;;;;;;4.90;3.72;;;3.10;55.70;;;1.44;62.30;100896.59;12185341;19;20428;-82
2022/12/12 20:28:22;;;;;;;4.78;3.17;;;3.00;55.70;;;1.47;62.20;100906.84;12182746;19;20377;-83
2022/12/12 20:32:24;;;;;;;2.90;2.58;;;3.00;55.70;;;1.47;62.34;100909.41;12182124;19;20641;-82
2022/12/12 20:36:29;;;;;;;3.83;3.20;;;3.00;55.70;;;0.80;62.08;100809.19;12185754;19;20011;-82
2022/12/12 20:40:35;;;;;;;3.47;2.85;;;3.10;56.20;;;1.49;62.32;100925.69;12180027;19;20022;-82
2022/12/12 20:44:37;;;;;;;2.70;2.50;;;3.00;55.80;;;1.48;62.36;100929.94;12179743;19;20291;-82
2022/12/12 20:48:41;;;;;;;3.42;2.60;;;3.10;56.00;;;1.40;62.31;100920.66;12174296;19;20731;-82
2022/12/12 20:52:43;;;;;;;3.15;2.80;;;3.20;56.00;;;1.24;62.34;100892.59;12182241;19;20011;-82
2022/12/12 20:56:45;;;;;;;5.32;3.97;;;3.00;55.90;;;1.35;62.30;100912.16;12165327;19;20090;-82
2022/12/12 21:00:47;;;;;;;6.68;3.83;;;2.90;55.90;;;1.27;62.21;100914.81;12169925;19;20014;-82
2022/12/12 21:04:49;;;;;;;4.82;3.45;;;2.90;55.90;;;1.33;62.30;100918.19;12173259;19;20489;-83
2022/12/12 21:08:52;;;;;;;3.58;2.92;;;3.10;56.00;;;1.10;62.39;100872.19;12171199;19;20014;-83
2022/12/12 21:12:53;;;;;;;3.88;3.22;;;2.90;56.00;;;1.37;62.15;100929.25;12177599;19;20025;-82
2022/12/12 21:16:56;;;;;;;8.15;4.97;;;2.90;56.00;;;1.41;62.46;100930.09;12179446;19;20336;-82
2022/12/12 21:20:57;;;;;;;14.10;7.72;;;2.90;55.90;;;1.41;62.25;100920.63;12179366;19;20930;-81
2022/12/12 21:24:59;;;;;;;13.77;7.25;;;2.90;56.00;;;1.25;62.33;100894.28;12181996;19;20463;-80
2022/12/12 21:29:02;;;;;;;8.20;4.70;;;2.90;55.80;;;1.24;62.26;100889.16;12183022;19;20030;-81
2022/12/12 21:33:04;;;;;;;4.88;3.35;;;2.90;55.80;;;1.43;62.34;100918.03;12182589;19;20779;-81
2022/12/12 21:37:06;;;;;;;3.72;2.75;;;2.90;55.90;;;1.45;62.39;100924.84;12172555;19;20043;-81
2022/12/12 21:41:19;;;;;;;3.47;2.45;;;2.90;55.90;;;1.30;62.30;100897.63;12173875;19;20382;-81
2022/12/12 21:45:21;;;;;;;3.60;2.97;;;3.00;56.00;;;1.40;62.36;100900.06;12191403;19;20484;-81
2022/12/12 21:49:26;;;;;;;3.45;2.63;;;3.00;56.00;;;1.47;62.27;100910.25;12184406;19;20363;-81
2022/12/12 21:53:34;;;;;;;;;;;3.20;56.00;;;1.44;62.23;100919.75;12187586;19;20457;-81
2022/12/12 21:57:35;;;;;;;4.53;2.97;;;3.10;56.10;;;1.36;62.37;100907.00;12183466;19;20764;-81
2022/12/12 22:01:38;;;;;;;5.28;4.00;;;3.10;56.10;;;1.45;62.29;100916.28;12179582;19;20600;-82
2022/12/12 22:05:40;;;;;;;8.20;4.70;;;3.00;56.10;;;1.42;62.54;100913.78;12184265;19;20054;-81
2022/12/12 22:09:42;;;;;;;5.88;4.43;;;3.00;56.20;;;1.49;62.56;100928.25;12174676;19;20011;-81
2022/12/12 22:13:44;;;;;;;7.55;5.15;;;3.20;56.40;;;1.41;62.42;100906.94;12174290;19;20017;-81
2022/12/12 22:17:46;;;;;;;9.35;4.90;;;3.10;56.40;;;1.55;62.33;100926.44;12169309;19;20273;-80
2022/12/12 22:21:48;;;;;;;7.03;5.03;;;3.10;56.50;;;1.56;62.44;100927.28;12169975;19;20030;-82
2022/12/12 22:25:50;;;;;;;10.68;7.30;;;3.30;56.60;;;1.53;62.29;100920.44;12175136;19;20420;-81
2022/12/12 22:29:52;;;;;;;7.13;4.85;;;3.20;56.40;;;1.15;62.41;100855.84;12171442;19;20025;-81
2022/12/12 22:34:03;;;;;;;6.30;4.85;;;3.10;56.00;;;1.53;62.34;100917.03;12184667;19;20019;-82
2022/12/12 22:38:05;;;;;;;5.07;3.75;;;3.20;55.60;;;1.57;62.34;100929.00;12178874;19;20107;-82
2022/12/12 22:42:07;;;;;;;4.85;3.42;;;3.20;55.90;;;1.55;62.38;100926.44;12181965;19;20295;-82
2022/12/12 22:46:10;;;;;;;5.45;3.83;;;3.20;55.80;;;1.58;62.30;100920.38;12183414;19;20521;-81
2022/12/12 22:50:11;;;;;;;4.07;3.58;;;3.10;55.70;;;1.63;62.36;100933.19;12184037;19;20459;-82
2022/12/12 22:54:13;;;;;;;8.02;3.63;;;3.20;55.40;;;1.63;62.44;100930.63;12180917;19;20118;-82
2022/12/12 22:58:15;;;;;;;4.25;3.10;;;3.20;55.50;;;1.57;62.47;100921.28;12174362;19;20022;-82
2022/12/12 23:02:17;;;;;;;4.55;3.42;;;3.40;55.70;;;1.50;62.32;100912.78;12176840;19;20977;-82
2022/12/12 23:06:37;;;;;;;4.25;2.80;;;3.30;55.70;;;1.58;62.28;100924.69;12178551;19;20384;-82
2022/12/12 23:10:38;;;;;;;4.82;3.33;;;3.20;55.40;;;1.62;62.34;100936.63;12174828;19;20560;-81
2022/12/12 23:14:40;;;;;;;3.90;2.90;;;3.20;56.00;;;1.55;62.22;100925.59;12176286;19;20030;-82
2022/12/12 23:18:43;;;;;;;4.28;2.70;;;3.20;55.40;;;1.62;62.23;100929.78;12179499;19;20019;-82
2022/12/12 23:22:45;;;;;;;3.80;3.10;;;3.30;55.60;;;1.53;62.27;100922.19;12177335;19;20019;-82
2022/12/12 23:26:50;;;;;;;4.95;3.97;;;3.20;55.50;;;1.52;62.29;100915.34;12172481;19;21216;-82
2022/12/12 23:30:52;;;;;;;4.32;3.38;;;3.20;55.20;;;1.60;62.27;100938.38;12169192;19;20295;-83
2022/12/12 23:34:53;;;;;;;4.47;3.40;;;3.30;55.40;;;1.65;62.32;100940.03;12170711;19;20391;-81
2022/12/12 23:39:01;;;;;;;4.93;3.60;;;3.20;55.40;;;1.61;62.29;100930.63;12204340;19;20872;-82
2022/12/12 23:43:03;;;;;;;3.90;3.47;;;3.20;55.50;;;1.58;62.23;100919.53;12213394;19;20315;-82
2022/12/12 23:47:05;;;;;;;4.70;3.95;;;3.30;55.60;;;1.52;62.18;100905.88;12212426;19;20026;-82
2022/12/12 23:51:06;;;;;;;6.05;4.10;;;3.30;55.60;;;1.67;62.16;100930.53;12207934;19;20345;-82
2022/12/12 23:55:08;;;;;;;4.65;3.65;;;3.30;55.60;;;1.67;62.38;100922.81;12207826;19;20097;-82
2022/12/12 23:59:10;;;;;;;5.65;3.72;;;3.30;55.40;;;1.61;62.12;100910.03;12209498;19;20645;-82
